createdAt,value
2018-03-24T00:00:26.838Z,60.67
2018-03-24T00:01:26.821Z,60.58
2018-03-24T00:02:47.805Z,60.96
2018-03-24T00:03:26.787Z,60.20
2018-03-24T00:04:47.779Z,60.11
2018-03-24T00:05:26.763Z,59.57
2018-03-24T00:06:26.749Z,59.16
2018-03-24T00:07:47.726Z,59.16
2018-03-24T00:08:26.704Z,59.35
2018-03-24T00:09:47.692Z,59.73
2018-03-24T00:10:26.676Z,59.73
2018-03-24T00:11:26.656Z,59.73
2018-03-24T00:12:47.642Z,59.92
2018-03-24T00:13:26.624Z,60.49
2018-03-24T00:14:47.604Z,60.49
2018-03-24T00:15:26.585Z,60.49
2018-03-24T00:16:26.569Z,60.20
2018-03-24T00:17:47.551Z,60.39
2018-03-24T00:18:26.533Z,59.82
2018-03-24T00:19:47.518Z,59.73
2018-03-24T00:20:26.517Z,58.40
2018-03-24T00:21:26.488Z,58.50
2018-03-24T00:22:47.482Z,58.97
2018-03-24T00:23:26.449Z,59.95
2018-03-24T00:24:47.435Z,60.04
2018-03-24T00:25:26.415Z,59.54
2018-03-24T00:26:26.397Z,60.52
2018-03-24T00:27:47.389Z,59.54
2018-03-24T00:28:26.365Z,58.59
2018-03-24T00:29:47.347Z,57.84
2018-03-24T00:30:26.329Z,58.53
2018-03-24T00:31:26.318Z,58.72
2018-03-24T00:32:47.300Z,58.03
2018-03-24T00:33:26.282Z,57.96
2018-03-24T00:34:47.268Z,58.03
2018-03-24T00:35:26.246Z,58.53
2018-03-24T00:36:26.230Z,58.59
2018-03-24T00:37:47.214Z,58.34
2018-03-24T00:38:26.196Z,58.53
2018-03-24T00:39:47.183Z,58.44
2018-03-24T00:40:26.157Z,58.22
2018-03-24T00:41:26.149Z,58.15
2018-03-24T00:42:47.134Z,57.65
2018-03-24T00:43:26.111Z,57.58
2018-03-24T00:44:47.096Z,58.69
2018-03-24T00:45:26.075Z,58.50
2018-03-24T00:46:26.053Z,58.03
2018-03-24T00:47:47.050Z,58.59
2018-03-24T00:48:26.027Z,58.50
2018-03-24T00:49:47.010Z,58.97
2018-03-24T00:50:25.990Z,59.54
2018-03-24T00:51:25.974Z,59.63
2018-03-24T00:52:46.958Z,59.63
2018-03-24T00:53:25.938Z,58.40
2018-03-24T00:54:46.922Z,58.40
2018-03-24T00:55:25.903Z,58.78
2018-03-24T00:56:25.889Z,58.97
2018-03-24T00:57:46.872Z,58.50
2018-03-24T00:58:25.849Z,58.78
2018-03-24T00:59:46.839Z,58.69
2018-03-24T01:00:25.820Z,58.59
2018-03-24T01:01:25.801Z,57.84
2018-03-24T01:02:46.787Z,58.50
2018-03-24T01:03:25.769Z,59.44
2018-03-24T01:04:46.756Z,59.54
2018-03-24T01:05:25.738Z,58.59
2018-03-24T01:06:25.719Z,57.84
2018-03-24T01:07:46.703Z,58.12
2018-03-24T01:08:25.691Z,58.31
2018-03-24T01:09:46.668Z,57.74
2018-03-24T01:10:25.656Z,57.27
2018-03-24T01:11:25.627Z,56.89
2018-03-24T01:12:46.613Z,57.93
2018-03-24T01:13:25.591Z,58.40
2018-03-24T01:14:46.573Z,58.59
2018-03-24T01:15:25.562Z,57.84
2018-03-24T01:16:25.541Z,57.27
2018-03-24T01:17:46.531Z,56.99
2018-03-24T01:18:25.507Z,56.70
2018-03-24T01:19:46.496Z,55.85
2018-03-24T01:20:25.477Z,55.57
2018-03-24T01:21:25.460Z,55.19
2018-03-24T01:22:46.446Z,54.53
2018-03-24T01:23:25.424Z,53.96
2018-03-24T01:24:46.410Z,56.23
2018-03-24T01:25:25.392Z,56.42
2018-03-24T01:26:25.373Z,55.00
2018-03-24T01:27:46.360Z,54.91
2018-03-24T01:28:25.340Z,55.19
2018-03-24T01:29:46.331Z,55.38
2018-03-24T01:30:25.306Z,55.85
2018-03-24T01:31:25.291Z,56.32
2018-03-24T01:32:46.269Z,56.51
2018-03-24T01:33:25.252Z,57.18
2018-03-24T01:34:46.241Z,58.03
2018-03-24T01:35:25.215Z,58.78
2018-03-24T01:36:25.199Z,58.22
2018-03-24T01:37:46.183Z,58.59
2018-03-24T01:38:25.167Z,60.01
2018-03-24T01:39:46.151Z,59.54
2018-03-24T01:40:25.131Z,60.11
2018-03-24T01:41:25.109Z,60.30
2018-03-24T01:42:46.091Z,60.11
2018-03-24T01:43:25.078Z,56.89
2018-03-24T01:44:46.068Z,56.70
2018-03-24T01:45:25.049Z,57.55
2018-03-24T01:46:25.031Z,57.55
2018-03-24T01:47:46.012Z,57.18
2018-03-24T01:48:24.996Z,56.42
2018-03-24T01:49:45.978Z,56.51
2018-03-24T01:50:24.960Z,56.70
2018-03-24T01:51:24.941Z,56.70
2018-03-24T01:52:45.928Z,57.08
2018-03-24T01:53:24.905Z,56.89
2018-03-24T01:54:45.890Z,56.99
2018-03-24T01:55:24.868Z,56.80
2018-03-24T01:56:24.860Z,56.89
2018-03-24T01:57:45.842Z,57.27
2018-03-24T01:58:24.818Z,58.12
2018-03-24T01:59:45.797Z,58.22
2018-03-24T02:00:24.782Z,57.93
2018-03-24T02:01:24.767Z,56.80
2018-03-24T02:02:45.744Z,56.99
2018-03-24T02:03:24.731Z,56.42
2018-03-24T02:04:45.720Z,56.32
2018-03-24T02:05:24.689Z,55.47
2018-03-24T02:06:24.677Z,54.81
2018-03-24T02:07:45.670Z,56.04
2018-03-24T02:08:24.642Z,56.04
2018-03-24T02:09:45.630Z,57.18
2018-03-24T02:10:24.612Z,56.42
2018-03-24T02:11:24.597Z,56.13
2018-03-24T02:12:45.574Z,56.04
2018-03-24T02:13:24.556Z,56.42
2018-03-24T02:14:45.540Z,56.61
2018-03-24T02:15:24.520Z,56.51
2018-03-24T02:16:24.505Z,56.23
2018-03-24T02:17:45.490Z,56.89
2018-03-24T02:18:24.470Z,56.99
2018-03-24T02:19:45.453Z,55.00
2018-03-24T02:20:24.435Z,54.72
2018-03-24T02:21:24.417Z,54.81
2018-03-24T02:22:45.400Z,55.47
2018-03-24T02:23:24.388Z,55.66
2018-03-24T02:24:45.364Z,54.81
2018-03-24T02:25:24.348Z,54.62
2018-03-24T02:26:24.330Z,54.62
2018-03-24T02:27:45.315Z,55.38
2018-03-24T02:28:24.291Z,56.04
2018-03-24T02:29:45.278Z,56.70
2018-03-24T02:30:24.255Z,56.51
2018-03-24T02:31:24.241Z,56.23
2018-03-24T02:32:45.234Z,56.13
2018-03-24T02:33:24.210Z,56.13
2018-03-24T02:34:45.192Z,56.61
2018-03-24T02:35:24.176Z,56.99
2018-03-24T02:36:24.153Z,57.08
2018-03-24T02:37:45.143Z,56.80
2018-03-24T02:38:24.114Z,56.89
2018-03-24T02:39:45.103Z,57.18
2018-03-24T02:40:24.083Z,56.42
2018-03-24T02:41:24.062Z,55.66
2018-03-24T02:42:45.050Z,55.00
2018-03-24T02:43:24.031Z,54.06
2018-03-24T02:44:45.014Z,54.15
2018-03-24T02:45:23.994Z,53.77
2018-03-24T02:46:23.977Z,53.68
2018-03-24T02:47:44.963Z,53.87
2018-03-24T02:48:23.945Z,52.92
2018-03-24T02:49:44.933Z,52.45
2018-03-24T02:50:23.912Z,53.39
2018-03-24T02:51:23.901Z,52.92
2018-03-24T02:52:44.889Z,52.92
2018-03-24T02:53:23.861Z,53.68
2018-03-24T02:54:44.838Z,54.81
2018-03-24T02:55:23.818Z,56.04
2018-03-24T02:56:23.802Z,57.05
2018-03-24T02:57:44.790Z,58.00
2018-03-24T02:58:23.773Z,57.24
2018-03-24T02:59:44.752Z,56.86
2018-03-24T03:00:23.739Z,56.39
2018-03-24T03:01:23.720Z,56.96
2018-03-24T03:02:44.703Z,56.20
2018-03-24T03:03:23.686Z,56.96
2018-03-24T03:04:44.659Z,57.15
2018-03-24T03:05:23.648Z,56.30
2018-03-24T03:06:23.629Z,56.01
2018-03-24T03:07:44.615Z,55.63
2018-03-24T03:08:23.594Z,56.01
2018-03-24T03:09:44.583Z,55.44
2018-03-24T03:10:23.561Z,54.79
2018-03-24T03:11:23.540Z,54.69
2018-03-24T03:12:44.529Z,55.26
2018-03-24T03:13:23.503Z,55.35
2018-03-24T03:14:44.488Z,54.69
2018-03-24T03:15:23.478Z,55.07
2018-03-24T03:16:23.454Z,55.82
2018-03-24T03:17:44.436Z,56.30
2018-03-24T03:18:23.418Z,56.30
2018-03-24T03:19:44.419Z,56.20
2018-03-24T03:20:23.380Z,55.16
2018-03-24T03:21:23.362Z,54.69
2018-03-24T03:22:44.348Z,54.50
2018-03-24T03:23:23.326Z,54.41
2018-03-24T03:24:44.311Z,53.84
2018-03-24T03:25:23.295Z,54.50
2018-03-24T03:26:23.274Z,54.50
2018-03-24T03:27:44.273Z,54.50
2018-03-24T03:28:23.241Z,54.60
2018-03-24T03:29:44.222Z,54.32
2018-03-24T03:30:23.205Z,54.41
2018-03-24T03:31:23.192Z,54.69
2018-03-24T03:32:44.176Z,54.88
2018-03-24T03:33:23.154Z,54.50
2018-03-24T03:34:44.136Z,54.69
2018-03-24T03:35:23.120Z,54.88
2018-03-24T03:36:23.092Z,54.79
2018-03-24T03:37:44.080Z,54.88
2018-03-24T03:38:23.060Z,54.88
2018-03-24T03:39:44.046Z,54.69
2018-03-24T03:40:23.030Z,54.50
2018-03-24T03:41:23.012Z,54.97
2018-03-24T03:42:43.996Z,54.79
2018-03-24T03:43:22.981Z,54.97
2018-03-24T03:44:43.959Z,54.88
2018-03-24T03:45:22.941Z,55.35
2018-03-24T03:46:22.920Z,55.44
2018-03-24T03:47:43.907Z,55.82
2018-03-24T03:48:22.903Z,56.01
2018-03-24T03:49:43.872Z,55.82
2018-03-24T03:50:22.851Z,55.35
2018-03-24T03:51:22.827Z,55.07
2018-03-24T03:52:43.818Z,54.69
2018-03-24T03:53:22.791Z,55.44
2018-03-24T03:54:43.780Z,56.01
2018-03-24T03:55:22.767Z,56.20
2018-03-24T03:56:22.750Z,56.01
2018-03-24T03:57:43.730Z,56.77
2018-03-24T03:58:22.705Z,57.15
2018-03-24T03:59:43.692Z,56.86
2018-03-24T04:00:22.676Z,57.15
2018-03-24T04:01:22.655Z,57.24
2018-03-24T04:02:43.643Z,57.90
2018-03-24T04:03:22.620Z,58.28
2018-03-24T04:04:43.605Z,58.28
2018-03-24T04:05:22.585Z,58.37
2018-03-24T04:06:22.566Z,57.81
2018-03-24T04:07:43.549Z,57.15
2018-03-24T04:08:22.529Z,57.81
2018-03-24T04:09:43.512Z,57.15
2018-03-24T04:10:22.496Z,56.86
2018-03-24T04:11:22.483Z,56.30
2018-03-24T04:12:43.462Z,56.20
2018-03-24T04:13:22.439Z,54.88
2018-03-24T04:14:43.420Z,54.41
2018-03-24T04:15:22.408Z,54.88
2018-03-24T04:16:22.390Z,54.97
2018-03-24T04:17:43.373Z,56.11
2018-03-24T04:18:22.352Z,56.39
2018-03-24T04:19:43.337Z,57.05
2018-03-24T04:20:22.312Z,56.86
2018-03-24T04:21:22.292Z,55.92
2018-03-24T04:22:43.284Z,56.30
2018-03-24T04:23:22.262Z,56.01
2018-03-24T04:24:43.245Z,56.11
2018-03-24T04:25:22.219Z,57.15
2018-03-24T04:26:22.205Z,58.18
2018-03-24T04:27:43.196Z,57.71
2018-03-24T04:28:22.173Z,56.48
2018-03-24T04:29:43.157Z,56.30
2018-03-24T04:30:22.137Z,56.58
2018-03-24T04:31:22.127Z,56.48
2018-03-24T04:32:43.103Z,56.11
2018-03-24T04:33:22.087Z,56.20
2018-03-24T04:34:43.071Z,55.92
2018-03-24T04:35:22.047Z,56.01
2018-03-24T04:36:22.029Z,55.82
2018-03-24T04:37:43.015Z,56.20
2018-03-24T04:38:21.984Z,56.39
2018-03-24T04:39:42.975Z,55.92
2018-03-24T04:40:21.958Z,54.69
2018-03-24T04:41:21.939Z,54.97
2018-03-24T04:42:42.925Z,56.01
2018-03-24T04:43:21.905Z,56.30
2018-03-24T04:44:42.888Z,56.11
2018-03-24T04:45:21.868Z,55.44
2018-03-24T04:46:21.845Z,55.92
2018-03-24T04:47:42.832Z,56.01
2018-03-24T04:48:21.813Z,55.92
2018-03-24T04:49:42.798Z,56.39
2018-03-24T04:50:21.773Z,57.24
2018-03-24T04:51:21.766Z,57.81
2018-03-24T04:52:42.742Z,57.43
2018-03-24T04:53:21.719Z,57.81
2018-03-24T04:54:42.706Z,56.86
2018-03-24T04:55:21.689Z,56.30
2018-03-24T04:56:21.673Z,56.20
2018-03-24T04:57:42.706Z,55.82
2018-03-24T04:58:21.635Z,55.92
2018-03-24T04:59:42.618Z,56.48
2018-03-24T05:00:21.601Z,56.58
2018-03-24T05:01:21.580Z,56.01
2018-03-24T05:02:42.566Z,55.73
2018-03-24T05:03:21.541Z,55.16
2018-03-24T05:04:42.531Z,55.35
2018-03-24T05:05:21.511Z,55.07
2018-03-24T05:06:21.494Z,53.94
2018-03-24T05:07:42.471Z,53.56
2018-03-24T05:08:21.456Z,52.89
2018-03-24T05:09:42.490Z,53.08
2018-03-24T05:10:21.418Z,52.61
2018-03-24T05:11:21.404Z,53.08
2018-03-24T05:12:42.386Z,53.56
2018-03-24T05:13:21.371Z,53.84
2018-03-24T05:14:42.351Z,53.18
2018-03-24T05:15:21.331Z,53.65
2018-03-24T05:16:21.313Z,54.41
2018-03-24T05:17:42.293Z,54.32
2018-03-24T05:18:21.280Z,54.13
2018-03-24T05:19:42.258Z,54.69
2018-03-24T05:20:21.237Z,54.69
2018-03-24T05:21:21.221Z,55.16
2018-03-24T05:22:42.203Z,55.92
2018-03-24T05:23:21.182Z,56.39
2018-03-24T05:24:42.172Z,55.54
2018-03-24T05:25:21.146Z,54.97
2018-03-24T05:26:21.134Z,54.60
2018-03-24T05:27:42.118Z,54.22
2018-03-24T05:28:21.099Z,54.79
2018-03-24T05:29:42.081Z,53.84
2018-03-24T05:30:21.057Z,53.18
2018-03-24T05:31:21.039Z,52.70
2018-03-24T05:32:42.023Z,53.18
2018-03-24T05:33:21.003Z,52.80
2018-03-24T05:34:41.990Z,52.51
2018-03-24T05:35:20.969Z,52.70
2018-03-24T05:36:20.948Z,53.75
2018-03-24T05:37:41.936Z,53.65
2018-03-24T05:38:20.918Z,53.84
2018-03-24T05:39:41.899Z,53.18
2018-03-24T05:40:20.879Z,53.84
2018-03-24T05:41:20.865Z,56.11
2018-03-24T05:42:41.841Z,55.35
2018-03-24T05:43:20.824Z,54.97
2018-03-24T05:44:41.804Z,54.13
2018-03-24T05:45:20.784Z,52.80
2018-03-24T05:46:20.773Z,53.65
2018-03-24T05:47:41.754Z,54.69
2018-03-24T05:48:20.734Z,53.84
2018-03-24T05:49:41.723Z,53.65
2018-03-24T05:50:20.702Z,53.65
2018-03-24T05:51:20.681Z,53.65
2018-03-24T05:52:41.667Z,53.18
2018-03-24T05:53:20.647Z,53.75
2018-03-24T05:54:41.628Z,53.65
2018-03-24T05:55:20.612Z,53.75
2018-03-24T05:56:20.591Z,53.65
2018-03-24T05:57:41.579Z,54.97
2018-03-24T05:58:20.555Z,54.79
2018-03-24T05:59:41.542Z,54.88
2018-03-24T06:00:20.518Z,54.69
2018-03-24T06:01:20.503Z,53.94
2018-03-24T06:02:41.483Z,54.03
2018-03-24T06:03:20.460Z,53.75
2018-03-24T06:04:41.445Z,53.94
2018-03-24T06:05:20.430Z,53.84
2018-03-24T06:06:20.404Z,53.75
2018-03-24T06:07:41.398Z,53.75
2018-03-24T06:08:20.373Z,53.84
2018-03-24T06:09:41.357Z,53.27
2018-03-24T06:10:20.337Z,53.65
2018-03-24T06:11:20.323Z,53.75
2018-03-24T06:12:41.302Z,53.94
2018-03-24T06:13:20.284Z,54.60
2018-03-24T06:14:41.266Z,54.97
2018-03-24T06:15:20.249Z,54.88
2018-03-24T06:16:20.232Z,54.79
2018-03-24T06:17:41.213Z,54.97
2018-03-24T06:18:20.197Z,54.03
2018-03-24T06:19:41.187Z,54.03
2018-03-24T06:20:20.174Z,53.84
2018-03-24T06:21:20.141Z,52.36
2018-03-24T06:22:41.123Z,53.18
2018-03-24T06:23:20.104Z,53.02
2018-03-24T06:24:41.088Z,51.79
2018-03-24T06:25:20.070Z,52.83
2018-03-24T06:26:20.050Z,53.58
2018-03-24T06:27:41.038Z,53.87
2018-03-24T06:28:20.014Z,51.88
2018-03-24T06:29:40.998Z,51.03
2018-03-24T06:30:19.973Z,49.90
2018-03-24T06:31:19.969Z,50.09
2018-03-24T06:32:40.951Z,49.62
2018-03-24T06:33:19.930Z,49.14
2018-03-24T06:34:40.907Z,49.24
2018-03-24T06:35:19.896Z,49.90
2018-03-24T06:36:19.872Z,50.27
2018-03-24T06:37:40.857Z,49.90
2018-03-24T06:38:19.835Z,50.27
2018-03-24T06:39:40.816Z,50.09
2018-03-24T06:40:19.799Z,49.99
2018-03-24T06:41:19.782Z,50.27
2018-03-24T06:42:40.768Z,51.41
2018-03-24T06:43:19.746Z,51.13
2018-03-24T06:44:40.785Z,50.56
2018-03-24T06:45:19.712Z,50.27
2018-03-24T06:46:19.698Z,50.75
2018-03-24T06:47:40.674Z,50.94
2018-03-24T06:48:19.658Z,51.03
2018-03-24T06:49:40.642Z,51.22
2018-03-24T06:50:19.620Z,51.79
2018-03-24T06:51:19.600Z,52.26
2018-03-24T06:52:40.587Z,52.64
2018-03-24T06:53:19.564Z,53.02
2018-03-24T06:54:40.550Z,52.07
2018-03-24T06:55:19.532Z,51.13
2018-03-24T06:56:19.513Z,51.13
2018-03-24T06:57:40.503Z,50.84
2018-03-24T06:58:19.482Z,50.27
2018-03-24T06:59:40.462Z,50.37
2018-03-24T07:00:19.443Z,50.59
2018-03-24T07:01:19.423Z,52.00
2018-03-24T07:02:40.405Z,53.42
2018-03-24T07:03:19.383Z,53.99
2018-03-24T07:04:40.368Z,53.80
2018-03-24T07:05:19.350Z,53.33
2018-03-24T07:06:19.332Z,50.87
2018-03-24T07:07:40.355Z,49.26
2018-03-24T07:08:19.306Z,47.66
2018-03-24T07:09:40.286Z,46.71
2018-03-24T07:10:19.267Z,47.49
2018-03-24T07:11:19.247Z,47.20
2018-03-24T07:12:40.233Z,47.30
2018-03-24T07:13:19.215Z,47.39
2018-03-24T07:14:40.201Z,47.39
2018-03-24T07:15:19.179Z,46.55
2018-03-24T07:16:19.168Z,45.98
2018-03-24T07:17:40.165Z,46.26
2018-03-24T07:18:19.127Z,46.45
2018-03-24T07:19:40.111Z,47.49
2018-03-24T07:20:19.095Z,49.38
2018-03-24T07:21:19.091Z,50.35
2018-03-24T07:22:40.063Z,50.63
2018-03-24T07:23:19.045Z,51.11
2018-03-24T07:24:40.033Z,51.01
2018-03-24T07:25:19.009Z,50.92
2018-03-24T07:26:18.997Z,50.26
2018-03-24T07:27:39.978Z,49.88
2018-03-24T07:28:18.964Z,47.61
2018-03-24T07:29:39.946Z,46.19
2018-03-24T07:30:18.924Z,46.19
2018-03-24T07:31:18.911Z,45.15
2018-03-24T07:32:39.899Z,44.58
2018-03-24T07:33:18.879Z,44.86
2018-03-24T07:34:39.866Z,44.89
2018-03-24T07:35:18.845Z,45.83
2018-03-24T07:36:18.832Z,45.74
2018-03-24T07:37:39.815Z,45.93
2018-03-24T07:38:18.798Z,47.34
2018-03-24T07:39:39.789Z,46.78
2018-03-24T07:40:18.762Z,44.60
2018-03-24T07:41:18.755Z,43.27
2018-03-24T07:42:39.737Z,41.85
2018-03-24T07:43:18.716Z,41.40
2018-03-24T07:44:39.706Z,43.20
2018-03-24T07:45:18.689Z,44.34
2018-03-24T07:46:18.674Z,45.10
2018-03-24T07:47:39.686Z,44.06
2018-03-24T07:48:18.639Z,43.49
2018-03-24T07:49:39.628Z,43.39
2018-03-24T07:50:18.616Z,43.87
2018-03-24T07:51:18.595Z,43.77
2018-03-24T07:52:39.589Z,43.87
2018-03-24T07:53:18.567Z,43.20
2018-03-24T07:54:39.553Z,42.35
2018-03-24T07:55:18.535Z,41.80
2018-03-24T07:56:18.531Z,41.59
2018-03-24T07:57:39.507Z,41.52
2018-03-24T07:58:18.489Z,41.24
2018-03-24T07:59:39.487Z,41.24
2018-03-24T08:00:18.460Z,41.61
2018-03-24T08:01:18.442Z,42.18
2018-03-24T08:02:39.432Z,42.08
2018-03-24T08:03:18.412Z,41.52
2018-03-24T08:04:39.404Z,41.33
2018-03-24T08:05:18.382Z,40.28
2018-03-24T08:06:18.372Z,40.09
2018-03-24T08:07:39.355Z,39.81
2018-03-24T08:08:18.341Z,40.00
2018-03-24T08:09:39.376Z,39.83
2018-03-24T08:10:18.310Z,39.45
2018-03-24T08:11:18.302Z,39.64
2018-03-24T08:12:39.291Z,39.83
2018-03-24T08:13:18.267Z,40.31
2018-03-24T08:14:39.258Z,40.42
2018-03-24T08:15:18.236Z,39.76
2018-03-24T08:16:18.226Z,37.19
2018-03-24T08:17:39.208Z,36.05
2018-03-24T08:18:18.202Z,35.85
2018-03-24T08:19:39.180Z,36.24
2018-03-24T08:20:18.168Z,36.63
2018-03-24T08:21:18.154Z,37.76
2018-03-24T08:22:39.145Z,38.33
2018-03-24T08:23:18.121Z,38.62
2018-03-24T08:24:39.123Z,37.95
2018-03-24T08:25:18.103Z,37.01
2018-03-24T08:26:18.083Z,36.05
2018-03-24T08:27:39.071Z,34.92
2018-03-24T08:28:18.053Z,34.36
2018-03-24T08:29:39.047Z,35.03
2018-03-24T08:30:18.029Z,36.07
2018-03-24T08:31:18.012Z,36.65
2018-03-24T08:32:39.002Z,36.65
2018-03-24T08:33:17.986Z,36.74
2018-03-24T08:34:38.976Z,36.00
2018-03-24T08:35:17.977Z,34.86
2018-03-24T08:36:17.947Z,33.62
2018-03-24T08:37:38.936Z,33.05
2018-03-24T08:38:17.934Z,32.67
2018-03-24T08:39:38.908Z,32.48
2018-03-24T08:40:17.902Z,32.39
2018-03-24T08:41:17.881Z,32.69
2018-03-24T08:42:38.871Z,32.97
2018-03-24T08:43:17.862Z,32.88
2018-03-24T08:44:38.875Z,32.97
2018-03-24T08:45:17.833Z,33.64
2018-03-24T08:46:17.819Z,33.92
2018-03-24T08:47:38.808Z,33.07
2018-03-24T08:48:17.783Z,32.57
2018-03-24T08:49:38.774Z,33.05
2018-03-24T08:50:17.758Z,32.96
2018-03-24T08:51:17.750Z,33.83
2018-03-24T08:52:38.749Z,34.02
2018-03-24T08:53:17.725Z,33.83
2018-03-24T08:54:38.719Z,32.97
2018-03-24T08:55:17.696Z,31.72
2018-03-24T08:56:17.687Z,31.36
2018-03-24T08:57:38.680Z,30.96
2018-03-24T08:58:17.661Z,31.34
2018-03-24T08:59:38.654Z,31.82
2018-03-24T09:00:17.639Z,32.21
2018-03-24T09:01:17.620Z,31.55
2018-03-24T09:02:38.615Z,30.69
2018-03-24T09:03:17.605Z,31.07
2018-03-24T09:04:38.591Z,31.07
2018-03-24T09:05:17.576Z,31.26
2018-03-24T09:06:17.560Z,31.55
2018-03-24T09:07:38.554Z,32.21
2018-03-24T09:08:17.536Z,32.99
2018-03-24T09:09:38.530Z,33.09
2018-03-24T09:10:17.510Z,32.51
2018-03-24T09:11:17.497Z,32.32
2018-03-24T09:12:38.488Z,30.73
2018-03-24T09:13:17.479Z,28.53
2018-03-24T09:14:38.461Z,27.30
2018-03-24T09:15:17.447Z,26.92
2018-03-24T09:16:17.433Z,26.82
2018-03-24T09:17:38.431Z,28.16
2018-03-24T09:18:17.411Z,29.11
2018-03-24T09:19:38.410Z,29.01
2018-03-24T09:20:17.390Z,28.25
2018-03-24T09:21:17.379Z,28.06
2018-03-24T09:22:38.375Z,27.87
2018-03-24T09:23:17.357Z,27.20
2018-03-24T09:24:38.343Z,27.11
2018-03-24T09:25:17.332Z,27.03
2018-03-24T09:26:17.315Z,28.08
2018-03-24T09:27:38.313Z,28.08
2018-03-24T09:28:17.294Z,28.08
2018-03-24T09:29:38.287Z,27.41
2018-03-24T09:30:17.267Z,27.12
2018-03-24T09:31:17.261Z,27.03
2018-03-24T09:32:38.256Z,26.65
2018-03-24T09:33:17.236Z,27.12
2018-03-24T09:34:38.229Z,26.47
2018-03-24T09:35:17.214Z,26.46
2018-03-24T09:36:17.207Z,26.37
2018-03-24T09:37:38.198Z,26.66
2018-03-24T09:38:17.185Z,25.71
2018-03-24T09:39:38.176Z,25.43
2018-03-24T09:40:17.159Z,25.43
2018-03-24T09:41:17.152Z,24.96
2018-03-24T09:42:38.137Z,24.67
2018-03-24T09:43:17.123Z,24.67
2018-03-24T09:44:38.117Z,24.19
2018-03-24T09:45:17.103Z,25.15
2018-03-24T09:46:17.084Z,24.96
2018-03-24T09:47:38.085Z,25.43
2018-03-24T09:48:17.070Z,25.26
2018-03-24T09:49:38.065Z,24.19
2018-03-24T09:50:17.045Z,24.01
2018-03-24T09:51:17.038Z,22.86
2018-03-24T09:52:38.033Z,23.25
2018-03-24T09:53:17.021Z,23.73
2018-03-24T09:54:38.012Z,22.97
2018-03-24T09:55:16.993Z,23.07
2018-03-24T09:56:16.983Z,22.59
2018-03-24T09:57:37.974Z,22.30
2018-03-24T09:58:16.961Z,22.59
2018-03-24T09:59:37.956Z,23.25
2018-03-24T10:00:16.942Z,23.83
2018-03-24T10:01:16.936Z,23.83
2018-03-24T10:02:37.929Z,24.88
2018-03-24T10:03:16.914Z,24.79
2018-03-24T10:04:37.908Z,24.98
2018-03-24T10:05:16.922Z,22.98
2018-03-24T10:06:16.876Z,21.64
2018-03-24T10:07:37.873Z,20.79
2018-03-24T10:08:16.858Z,20.79
2018-03-24T10:09:37.856Z,21.55
2018-03-24T10:10:16.836Z,21.64
2018-03-24T10:11:16.827Z,22.20
2018-03-24T10:12:37.825Z,22.97
2018-03-24T10:13:16.807Z,23.44
2018-03-24T10:14:37.799Z,23.64
2018-03-24T10:15:16.792Z,23.73
2018-03-24T10:16:16.779Z,23.16
2018-03-24T10:17:37.774Z,23.25
2018-03-24T10:18:16.756Z,23.36
2018-03-24T10:19:37.751Z,23.08
2018-03-24T10:20:16.736Z,22.69
2018-03-24T10:21:16.728Z,23.09
2018-03-24T10:22:37.726Z,21.75
2018-03-24T10:23:16.707Z,21.75
2018-03-24T10:24:37.705Z,21.45
2018-03-24T10:25:16.689Z,21.84
2018-03-24T10:26:16.675Z,22.98
2018-03-24T10:27:37.673Z,21.93
2018-03-24T10:28:16.663Z,21.45
2018-03-24T10:29:37.674Z,20.79
2018-03-24T10:30:16.643Z,21.55
2018-03-24T10:31:16.628Z,22.50
2018-03-24T10:32:37.628Z,22.89
2018-03-24T10:33:16.616Z,22.98
2018-03-24T10:34:37.608Z,22.33
2018-03-24T10:35:16.590Z,21.66
2018-03-24T10:36:16.586Z,21.08
2018-03-24T10:37:37.579Z,20.33
2018-03-24T10:38:16.568Z,20.72
2018-03-24T10:39:37.558Z,20.72
2018-03-24T10:40:16.545Z,20.81
2018-03-24T10:41:16.535Z,19.84
2018-03-24T10:42:37.529Z,21.17
2018-03-24T10:43:16.533Z,22.13
2018-03-24T10:44:37.515Z,22.31
2018-03-24T10:45:16.504Z,22.22
2018-03-24T10:46:16.487Z,22.52
2018-03-24T10:47:37.488Z,22.33
2018-03-24T10:48:16.470Z,23.09
2018-03-24T10:49:37.468Z,21.84
2018-03-24T10:50:16.456Z,22.22
2018-03-24T10:51:16.446Z,23.27
2018-03-24T10:52:37.446Z,22.13
2018-03-24T10:53:16.430Z,22.89
2018-03-24T10:54:37.422Z,22.98
2018-03-24T10:55:16.405Z,22.13
2018-03-24T10:56:16.400Z,22.23
2018-03-24T10:57:37.400Z,22.33
2018-03-24T10:58:16.377Z,21.19
2018-03-24T10:59:37.375Z,20.72
2018-03-24T11:00:16.361Z,21.28
2018-03-24T11:01:16.355Z,21.68
2018-03-24T11:02:37.352Z,20.81
2018-03-24T11:03:16.336Z,19.56
2018-03-24T11:04:37.342Z,19.93
2018-03-24T11:05:16.316Z,20.60
2018-03-24T11:06:16.314Z,20.69
2018-03-24T11:07:37.303Z,20.79
2018-03-24T11:08:16.291Z,20.88
2018-03-24T11:09:37.285Z,20.69
2018-03-24T11:10:16.271Z,22.23
2018-03-24T11:11:16.318Z,21.36
2018-03-24T11:12:37.261Z,20.12
2018-03-24T11:13:16.245Z,20.79
2018-03-24T11:14:37.246Z,21.64
2018-03-24T11:15:16.226Z,22.22
2018-03-24T11:16:16.217Z,21.75
2018-03-24T11:17:37.217Z,22.04
2018-03-24T11:18:16.203Z,21.84
2018-03-24T11:19:37.201Z,20.99
2018-03-24T11:20:16.182Z,20.42
2018-03-24T11:21:16.174Z,19.46
2018-03-24T11:22:37.172Z,19.66
2018-03-24T11:23:16.160Z,19.38
2018-03-24T11:24:37.158Z,19.18
2018-03-24T11:25:16.147Z,19.09
2018-03-24T11:26:16.138Z,19.38
2018-03-24T11:27:37.136Z,19.96
2018-03-24T11:28:16.172Z,19.67
2018-03-24T11:29:37.111Z,19.57
2018-03-24T11:30:16.095Z,19.47
2018-03-24T11:31:16.086Z,20.72
2018-03-24T11:32:37.092Z,20.62
2018-03-24T11:33:16.074Z,20.89
2018-03-24T11:34:37.071Z,21.77
2018-03-24T11:35:16.053Z,22.24
2018-03-24T11:36:16.043Z,22.53
2018-03-24T11:37:37.043Z,22.16
2018-03-24T11:38:16.027Z,22.54
2018-03-24T11:39:37.029Z,22.06
2018-03-24T11:40:16.011Z,21.59
2018-03-24T11:41:16.007Z,19.49
2018-03-24T11:42:37.003Z,19.40
2018-03-24T11:43:15.990Z,19.97
2018-03-24T11:44:36.986Z,19.50
2018-03-24T11:45:15.972Z,18.82
2018-03-24T11:46:15.969Z,18.83
2018-03-24T11:47:36.964Z,18.74
2018-03-24T11:48:15.950Z,18.82
2018-03-24T11:49:36.950Z,18.83
2018-03-24T11:50:15.970Z,19.31
2018-03-24T11:51:15.921Z,19.79
2018-03-24T11:52:36.923Z,18.27
2018-03-24T11:53:15.903Z,17.59
2018-03-24T11:54:36.903Z,17.30
2018-03-24T11:55:15.889Z,16.35
2018-03-24T11:56:15.938Z,16.91
2018-03-24T11:57:36.881Z,17.58
2018-03-24T11:58:15.865Z,17.49
2018-03-24T11:59:36.866Z,17.86
2018-03-24T12:00:15.854Z,18.25
2018-03-24T12:01:15.857Z,18.54
2018-03-24T12:02:36.842Z,18.26
2018-03-24T12:03:15.825Z,18.07
2018-03-24T12:04:36.831Z,17.68
2018-03-24T12:05:15.815Z,18.25
2018-03-24T12:06:15.806Z,18.52
2018-03-24T12:07:36.810Z,19.30
2018-03-24T12:08:15.837Z,18.43
2018-03-24T12:09:36.787Z,18.43
2018-03-24T12:10:15.776Z,18.43
2018-03-24T12:11:15.768Z,17.76
2018-03-24T12:12:36.776Z,17.27
2018-03-24T12:13:15.762Z,18.42
2018-03-24T12:14:36.757Z,18.61
2018-03-24T12:15:15.751Z,18.71
2018-03-24T12:16:15.727Z,19.47
2018-03-24T12:17:36.731Z,19.38
2018-03-24T12:18:15.719Z,19.77
2018-03-24T12:19:36.717Z,19.38
2018-03-24T12:20:15.704Z,20.06
2018-03-24T12:21:15.697Z,19.30
2018-03-24T12:22:36.691Z,19.21
2018-03-24T12:23:15.684Z,18.26
2018-03-24T12:24:36.686Z,17.78
2018-03-24T12:25:15.664Z,17.88
2018-03-24T12:26:15.658Z,18.37
2018-03-24T12:27:36.658Z,17.60
2018-03-24T12:28:15.641Z,16.83
2018-03-24T12:29:36.644Z,16.35
2018-03-24T12:30:15.628Z,16.16
2018-03-24T12:31:15.617Z,15.59
2018-03-24T12:32:36.620Z,16.64
2018-03-24T12:33:15.607Z,16.55
2018-03-24T12:34:36.611Z,16.46
2018-03-24T12:35:15.592Z,16.66
2018-03-24T12:36:15.587Z,17.33
2018-03-24T12:37:36.586Z,16.37
2018-03-24T12:38:15.570Z,15.61
2018-03-24T12:39:36.568Z,15.51
2018-03-24T12:40:15.578Z,14.73
2018-03-24T12:41:15.550Z,16.46
2018-03-24T12:42:36.545Z,17.80
2018-03-24T12:43:15.537Z,17.03
2018-03-24T12:44:36.547Z,16.27
2018-03-24T12:45:15.519Z,16.17
2018-03-24T12:46:15.513Z,16.08
2018-03-24T12:47:36.514Z,16.18
2018-03-24T12:48:15.502Z,16.47
2018-03-24T12:49:36.502Z,16.28
2018-03-24T12:50:15.486Z,16.19
2018-03-24T12:51:15.484Z,14.47
2018-03-24T12:52:36.486Z,14.17